createdAt,value
2023-04-22T00:00:35.194Z,65.2
2023-04-22T00:02:06.000Z,65.1
2023-04-22T00:03:37.000Z,65.3
2023-04-22T00:04:51.353Z,65.3
2023-04-22T00:06:06.482Z,65.3
2023-04-22T00:07:36.956Z,65.1
2023-04-22T00:09:07.509Z,64.6
2023-04-22T00:10:38.019Z,64.7
2023-04-22T00:12:09.000Z,64.8
2023-04-22T00:13:39.040Z,64.9
2023-04-22T00:15:09.558Z,64.9
2023-04-22T00:16:41.000Z,64.7
2023-04-22T00:18:11.000Z,64.8
2023-04-22T00:20:56.225Z,64.7
2023-04-22T00:22:12.000Z,64.8
2023-04-22T00:23:43.000Z,64.7
2023-04-22T00:25:12.383Z,64.9
2023-04-22T00:26:42.854Z,65.1
2023-04-22T00:28:13.395Z,65
2023-04-22T00:29:43.881Z,65.2
2023-04-22T00:31:15.000Z,64.9
2023-04-22T00:32:44.940Z,65.1
2023-04-22T00:34:15.458Z,64.6
2023-04-22T00:35:45.940Z,64.7
2023-04-22T00:37:01.065Z,64.8
2023-04-22T00:38:17.000Z,64.7
2023-04-22T00:39:46.730Z,64.8
2023-04-22T00:41:17.205Z,64.8
2023-04-22T00:42:47.727Z,64.8
2023-04-22T00:44:18.240Z,65
2023-04-22T00:45:48.776Z,64.5
2023-04-22T00:47:19.267Z,64.3
2023-04-22T00:48:49.774Z,64.5
2023-04-22T00:50:20.298Z,64.8
2023-04-22T00:51:50.827Z,64.4
2023-04-22T00:53:05.493Z,64.2
2023-04-22T00:54:20.627Z,64.3
2023-04-22T00:55:51.160Z,63.8
2023-04-22T00:57:21.644Z,64
2023-04-22T00:58:52.193Z,64.2
2023-04-22T01:00:22.674Z,64.4
2023-04-22T01:01:53.195Z,64.5
2023-04-22T01:03:23.731Z,64.8
2023-04-22T01:04:55.000Z,64.7
2023-04-22T01:06:24.726Z,64.8
2023-04-22T01:07:55.252Z,64.7
2023-04-22T01:09:10.360Z,64.9
2023-04-22T01:10:25.491Z,64.9
2023-04-22T01:11:56.004Z,64.9
2023-04-22T01:13:26.517Z,64.8
2023-04-22T01:14:58.000Z,64.7
2023-04-22T01:16:27.576Z,64.2
2023-04-22T01:19:29.000Z,64.5
2023-04-22T01:20:59.127Z,64
2023-04-22T01:22:29.591Z,64.4
2023-04-22T01:24:00.102Z,64.4
2023-04-22T01:25:16.000Z,64
2023-04-22T01:26:30.389Z,63.8
2023-04-22T01:28:00.880Z,64
2023-04-22T01:29:32.000Z,64.6
2023-04-22T01:31:01.926Z,64.2
2023-04-22T01:32:32.416Z,64.3
2023-04-22T01:34:02.954Z,64.7
2023-04-22T01:35:33.437Z,64.6
2023-04-22T01:37:03.954Z,64.8
2023-04-22T01:38:35.000Z,65
2023-04-22T01:40:05.007Z,65
2023-04-22T01:41:20.101Z,65
2023-04-22T01:42:35.271Z,64.7
2023-04-22T01:44:06.000Z,64.8
2023-04-22T01:45:36.285Z,64.6
2023-04-22T01:47:06.767Z,64.5
2023-04-22T01:48:37.290Z,64.5
2023-04-22T01:50:07.825Z,64.9
2023-04-22T01:51:38.321Z,64.8
2023-04-22T01:53:08.815Z,64.7
2023-04-22T01:54:40.000Z,64.8
2023-04-22T01:56:09.887Z,64.9
2023-04-22T01:57:24.972Z,64.8
2023-04-22T01:58:40.103Z,64.8
2023-04-22T02:00:10.639Z,65.2
2023-04-22T02:01:41.121Z,65.1
2023-04-22T02:03:12.000Z,64.8
2023-04-22T02:04:42.180Z,65.3
2023-04-22T02:06:12.703Z,65.5
2023-04-22T02:07:43.208Z,65.5
2023-04-22T02:09:13.719Z,65.6
2023-04-22T02:10:44.195Z,65.8
2023-04-22T02:12:14.710Z,65.6
2023-04-22T02:13:29.826Z,66
2023-04-22T02:14:44.956Z,66
2023-04-22T02:16:15.476Z,66
2023-04-22T02:17:45.998Z,66
2023-04-22T02:19:16.510Z,66.3
2023-04-22T02:20:47.011Z,66.1
2023-04-22T02:22:17.521Z,66.3
2023-04-22T02:23:48.038Z,66.4
2023-04-22T02:25:18.552Z,66.6
2023-04-22T02:26:49.069Z,66.6
2023-04-22T02:28:19.584Z,66.4
2023-04-22T02:29:34.264Z,66.6
2023-04-22T02:30:49.386Z,66.8
2023-04-22T02:32:19.919Z,67
2023-04-22T02:33:50.421Z,66.7
2023-04-22T02:35:20.939Z,67.1
2023-04-22T02:36:51.438Z,67.5
2023-04-22T02:38:21.953Z,67.5
2023-04-22T02:39:52.465Z,67.7
2023-04-22T02:41:22.998Z,67.8
2023-04-22T02:42:53.500Z,67.5
2023-04-22T02:44:24.003Z,67.5
2023-04-22T02:45:40.000Z,67.5
2023-04-22T02:46:54.263Z,67.9
2023-04-22T02:48:24.778Z,67.3
2023-04-22T02:49:55.291Z,67.7
2023-04-22T02:51:25.804Z,67.9
2023-04-22T02:52:56.314Z,68.2
2023-04-22T02:54:26.838Z,67.9
2023-04-22T02:55:57.337Z,67.5
2023-04-22T02:57:27.862Z,67.8
2023-04-22T02:58:58.384Z,67.9
2023-04-22T03:00:28.881Z,68
2023-04-22T03:01:44.009Z,68.2
2023-04-22T03:02:59.138Z,68.1
2023-04-22T03:04:29.649Z,68.3
2023-04-22T03:06:00.160Z,68.2
2023-04-22T03:07:30.667Z,68.1
2023-04-22T03:09:01.188Z,68.3
2023-04-22T03:10:31.703Z,68.3
2023-04-22T03:12:02.214Z,68.4
2023-04-22T03:13:32.722Z,68.4
2023-04-22T03:15:03.242Z,68.3
2023-04-22T03:16:33.841Z,68.3
2023-04-22T03:17:48.953Z,68.4
2023-04-22T03:19:04.102Z,68.4
2023-04-22T03:20:35.000Z,68.3
2023-04-22T03:22:05.112Z,68.3
2023-04-22T03:23:35.635Z,68.3
2023-04-22T03:25:06.153Z,68.3
2023-04-22T03:26:36.645Z,68.2
2023-04-22T03:28:07.172Z,68.4
2023-04-22T03:29:37.676Z,68.2
2023-04-22T03:31:08.197Z,68.2
2023-04-22T03:32:38.719Z,68.4
2023-04-22T03:33:55.000Z,68.2
2023-04-22T03:35:08.861Z,68.2
2023-04-22T03:36:40.000Z,68.1
2023-04-22T03:38:09.884Z,68.2
2023-04-22T03:39:40.398Z,68.4
2023-04-22T03:41:10.917Z,68.5
2023-04-22T03:42:41.436Z,68.5
2023-04-22T03:44:11.950Z,69
2023-04-22T03:45:42.455Z,69
2023-04-22T03:47:12.958Z,69.2
2023-04-22T03:48:43.477Z,69.3
2023-04-22T03:49:59.000Z,70.3
2023-04-22T03:51:13.619Z,70.3
2023-04-22T03:52:44.146Z,70.9
2023-04-22T03:54:14.650Z,71.2
2023-04-22T03:55:45.158Z,71.3
2023-04-22T03:57:15.687Z,71.4
2023-04-22T03:58:46.199Z,71.4
2023-04-22T04:00:16.699Z,71.4
2023-04-22T04:01:47.000Z,71.4
2023-04-22T04:03:17.726Z,71.2
2023-04-22T04:04:48.247Z,71.2
2023-04-22T04:06:04.000Z,71.2
2023-04-22T04:07:18.394Z,70.7
2023-04-22T04:08:48.898Z,70.7
2023-04-22T04:10:19.405Z,70.8
2023-04-22T04:11:49.927Z,70.7
2023-04-22T04:13:20.447Z,70.3
2023-04-22T04:14:50.960Z,70.1
2023-04-22T04:16:21.466Z,70.1
2023-04-22T04:17:51.970Z,69.9
2023-04-22T04:19:22.488Z,70
2023-04-22T04:20:53.003Z,70
2023-04-22T04:22:08.079Z,69.8
2023-04-22T04:23:24.000Z,70
2023-04-22T04:24:53.660Z,69.8
2023-04-22T04:26:24.176Z,69.7
2023-04-22T04:27:54.692Z,69.8
2023-04-22T04:29:25.192Z,69.7
2023-04-22T04:30:55.708Z,69.8
2023-04-22T04:32:26.223Z,69.9
2023-04-22T04:33:56.734Z,70.2
2023-04-22T04:35:27.252Z,70.2
2023-04-22T04:36:57.780Z,70.4
2023-04-22T04:38:12.830Z,70.5
2023-04-22T04:39:27.475Z,70.7
2023-04-22T04:40:57.982Z,70.5
2023-04-22T04:42:29.000Z,71.4
2023-04-22T04:43:59.012Z,70.9
2023-04-22T04:45:29.520Z,70.6
2023-04-22T04:47:00.049Z,69.9
2023-04-22T04:48:31.000Z,68.2
2023-04-22T04:50:01.073Z,65.4
2023-04-22T04:51:32.000Z,62.7
2023-04-22T04:53:02.094Z,60
2023-04-22T04:54:18.000Z,57.2
2023-04-22T04:55:32.243Z,55.5
2023-04-22T04:57:02.764Z,53.4
2023-04-22T04:58:33.261Z,51.5
2023-04-22T05:01:34.296Z,49.5
2023-04-22T05:03:06.000Z,49.3
2023-04-22T05:06:07.000Z,47.6
2023-04-22T05:07:37.000Z,47.9
2023-04-22T05:09:06.844Z,46.7
2023-04-22T05:10:21.914Z,47.9
2023-04-22T05:11:38.000Z,46.4
2023-04-22T05:13:07.502Z,45.2
2023-04-22T05:16:09.000Z,44.2
2023-04-22T05:17:39.129Z,44.8
2023-04-22T05:19:17.745Z,46.6
2023-04-22T05:20:49.000Z,48.5
2023-04-22T05:22:18.771Z,50.4
2023-04-22T05:23:49.297Z,51
2023-04-22T05:25:19.792Z,51.5
2023-04-22T05:26:36.000Z,52.8
2023-04-22T05:27:51.000Z,51.4
2023-04-22T05:29:20.449Z,52.1
2023-04-22T05:30:52.000Z,50.9
2023-04-22T05:32:22.000Z,48.5
2023-04-22T05:35:30.680Z,44
2023-04-22T05:37:02.000Z,42.6
2023-04-22T05:38:31.711Z,41.3
2023-04-22T05:40:03.000Z,41.1
2023-04-22T05:41:32.743Z,39.8
2023-04-22T05:42:47.804Z,39.8
2023-04-22T05:45:34.000Z,38.5
2023-04-22T05:47:03.983Z,38.3
2023-04-22T05:48:42.617Z,37.8
2023-04-22T05:50:13.118Z,38.6
2023-04-22T05:51:43.630Z,38.6
2023-04-22T05:53:14.147Z,40
2023-04-22T05:54:46.000Z,41
2023-04-22T05:56:15.165Z,40.5
2023-04-22T05:57:45.674Z,40.5
2023-04-22T05:59:00.759Z,40.7
2023-04-22T06:00:15.823Z,41.5
2023-04-22T06:01:46.331Z,41.5
2023-04-22T06:03:16.858Z,43.1
2023-04-22T06:04:47.362Z,41.9
2023-04-22T06:06:17.870Z,42.3
2023-04-22T06:07:48.392Z,41.3
2023-04-22T06:09:20.000Z,40.1
2023-04-22T06:10:49.494Z,40.5
2023-04-22T06:12:28.120Z,41.4
2023-04-22T06:13:59.000Z,42.6
2023-04-22T06:15:13.699Z,43.6
2023-04-22T06:16:28.780Z,43.2
2023-04-22T06:17:59.293Z,44.1
2023-04-22T06:19:31.000Z,45.9
2023-04-22T06:21:00.298Z,47.7
2023-04-22T06:22:30.831Z,46.5
2023-04-22T06:24:02.000Z,46.3
2023-04-22T06:25:33.000Z,46.5
2023-04-22T06:27:02.359Z,46.1
2023-04-22T06:28:32.879Z,46.8
2023-04-22T06:30:03.385Z,46.6
2023-04-22T06:31:18.451Z,45.2
2023-04-22T06:34:13.000Z,42.3
2023-04-22T06:35:42.389Z,41.1
2023-04-22T06:37:12.890Z,38.7
2023-04-22T06:38:43.426Z,39
2023-04-22T06:40:13.922Z,39.6
2023-04-22T06:41:44.428Z,40
2023-04-22T06:43:14.948Z,38.8
2023-04-22T06:44:45.544Z,37.6
2023-04-22T06:46:24.000Z,37.6
2023-04-22T06:49:09.187Z,38.1
2023-04-22T06:50:39.685Z,37.5
2023-04-22T06:52:10.205Z,39.3
2023-04-22T06:53:40.712Z,43.1
2023-04-22T06:55:11.233Z,43.5
2023-04-22T06:56:41.753Z,44.9
2023-04-22T06:58:12.254Z,44
2023-04-22T06:59:42.760Z,42.6
2023-04-22T07:01:13.290Z,42.4
2023-04-22T07:02:28.345Z,42.3
2023-04-22T07:03:43.416Z,41.3
2023-04-22T07:05:13.933Z,42.1
2023-04-22T07:06:44.438Z,41.4
2023-04-22T07:08:16.000Z,41.1
2023-04-22T07:09:45.470Z,40.4
2023-04-22T07:11:15.982Z,39.1
2023-04-22T07:12:46.495Z,37.6
2023-04-22T07:14:17.009Z,38.4
2023-04-22T07:15:47.513Z,35.7
2023-04-22T07:17:19.000Z,36.9
2023-04-22T07:18:33.097Z,37.4
2023-04-22T07:19:48.179Z,38
2023-04-22T07:21:18.692Z,37.6
2023-04-22T07:22:49.201Z,36.3
2023-04-22T07:24:19.711Z,37.9
2023-04-22T07:25:50.232Z,40.5
2023-04-22T07:27:20.737Z,42.5
2023-04-22T07:28:51.240Z,43.2
2023-04-22T07:30:21.764Z,44.6
2023-04-22T07:31:52.284Z,45.5
2023-04-22T07:33:24.000Z,46.3
2023-04-22T07:34:37.852Z,45.9
2023-04-22T07:35:52.936Z,46.8
2023-04-22T07:37:23.449Z,45.1
2023-04-22T07:38:54.026Z,44.9
2023-04-22T07:40:32.667Z,44.8
2023-04-22T07:42:03.181Z,46.8
2023-04-22T07:43:33.687Z,45.4
2023-04-22T07:45:04.188Z,45.4
2023-04-22T07:46:34.705Z,49
2023-04-22T07:48:06.000Z,46.1
2023-04-22T07:49:35.730Z,42.2
2023-04-22T07:50:50.000Z,42.1
2023-04-22T07:52:05.602Z,44
2023-04-22T07:53:44.213Z,43.1
2023-04-22T07:55:14.742Z,43.1
2023-04-22T07:56:45.253Z,43.6
2023-04-22T07:58:15.751Z,42.6
2023-04-22T07:59:46.281Z,42.6
2023-04-22T08:01:16.797Z,40.7
2023-04-22T08:02:48.000Z,42.2
2023-04-22T08:04:17.806Z,43.1
2023-04-22T08:05:48.317Z,42
2023-04-22T08:07:03.403Z,40.8
2023-04-22T08:08:19.000Z,40.3
2023-04-22T08:09:48.987Z,41.1
2023-04-22T08:11:19.574Z,40
2023-04-22T08:12:58.197Z,39.5
2023-04-22T08:14:28.704Z,39.7
2023-04-22T08:15:59.219Z,39.5
2023-04-22T08:17:29.722Z,39.7
2023-04-22T08:19:00.245Z,38.8
2023-04-22T08:20:30.754Z,38.8
2023-04-22T08:22:01.260Z,38.3
2023-04-22T08:23:16.343Z,39.3
2023-04-22T08:24:31.418Z,38.7
2023-04-22T08:26:01.928Z,39
2023-04-22T08:27:32.440Z,40.3
2023-04-22T08:29:02.950Z,40.4
2023-04-22T08:30:33.465Z,40.2
2023-04-22T08:32:03.966Z,40
2023-04-22T08:33:34.487Z,37.2
2023-04-22T08:35:05.000Z,38.1
2023-04-22T08:36:36.000Z,40.7
2023-04-22T08:38:06.020Z,41.9
2023-04-22T08:39:21.092Z,44.7
2023-04-22T08:40:36.170Z,40.5
2023-04-22T08:42:06.686Z,42.4
2023-04-22T08:43:37.188Z,40.5
2023-04-22T08:45:07.705Z,39.8
2023-04-22T08:46:39.000Z,40.7
2023-04-22T08:48:08.735Z,39.4
2023-04-22T08:49:39.000Z,41.2
2023-04-22T08:51:09.760Z,39.2
2023-04-22T08:52:40.276Z,39.5
2023-04-22T08:54:10.783Z,43.2
2023-04-22T08:55:25.841Z,41.9
2023-04-22T08:56:42.000Z,40.1
2023-04-22T08:58:11.435Z,40.5
2023-04-22T08:59:41.942Z,44
2023-04-22T09:01:12.450Z,41
2023-04-22T09:02:42.969Z,39.8
2023-04-22T09:04:13.479Z,39.7
2023-04-22T09:05:45.000Z,39.5
2023-04-22T09:07:14.504Z,39.5
2023-04-22T09:08:45.031Z,40.9
2023-04-22T09:10:16.000Z,41.8
2023-04-22T09:11:30.599Z,40.4
2023-04-22T09:12:45.669Z,43.7
2023-04-22T09:14:16.185Z,40.3
2023-04-22T09:15:46.704Z,40
2023-04-22T09:17:17.212Z,40.9
2023-04-22T09:18:49.000Z,38.3
2023-04-22T09:20:18.232Z,38.4
2023-04-22T09:21:48.753Z,38
2023-04-22T09:23:19.260Z,39.7
2023-04-22T09:24:49.849Z,38.9
2023-04-22T09:26:28.472Z,40.4
2023-04-22T09:27:44.000Z,39.6
2023-04-22T09:28:58.359Z,40.9
2023-04-22T09:30:36.964Z,39.6
2023-04-22T09:32:07.485Z,41
2023-04-22T09:33:38.000Z,40.3
2023-04-22T09:35:09.000Z,39.6
2023-04-22T09:36:39.021Z,38.1
2023-04-22T09:38:09.533Z,39.4
2023-04-22T09:39:40.033Z,40.5
2023-04-22T09:41:10.559Z,38.6
2023-04-22T09:42:41.079Z,37.6
2023-04-22T09:43:56.134Z,42.1
2023-04-22T09:45:12.000Z,41.6
2023-04-22T09:46:41.729Z,44.5
2023-04-22T09:48:12.239Z,41.3
2023-04-22T09:49:44.000Z,39.4
2023-04-22T09:51:13.264Z,38.9
2023-04-22T09:52:43.782Z,38.1
2023-04-22T09:54:14.278Z,39.3
2023-04-22T09:55:44.808Z,37.6
2023-04-22T09:57:15.306Z,39
2023-04-22T09:58:45.817Z,37.8
2023-04-22T10:00:00.094Z,38.7
2023-04-22T10:01:14.699Z,36.5
2023-04-22T10:02:28.588Z,38
2023-04-22T10:03:43.220Z,37.7
2023-04-22T10:04:57.828Z,39.3
2023-04-22T10:06:12.445Z,35.9
2023-04-22T10:07:27.074Z,37.7
2023-04-22T10:08:41.684Z,40.1
2023-04-22T10:11:10.918Z,36.9
2023-04-22T10:12:25.541Z,36.4
2023-04-22T10:13:40.166Z,37.7
2023-04-22T10:14:54.785Z,37.1
2023-04-22T10:16:09.399Z,38.4
2023-04-22T10:17:24.026Z,37.3
2023-04-22T10:18:38.644Z,36.8
2023-04-22T10:19:52.527Z,38.2
2023-04-22T10:21:07.144Z,39.1
2023-04-22T10:22:21.773Z,39.2
2023-04-22T10:23:36.386Z,37.1
2023-04-22T10:24:51.021Z,36.3
2023-04-22T10:26:05.623Z,36.6
2023-04-22T10:27:20.243Z,37.6
2023-04-22T10:28:34.869Z,39.2
2023-04-22T10:29:49.493Z,38.2
2023-04-22T10:31:04.119Z,40.9
2023-04-22T10:32:18.732Z,38.6
2023-04-22T10:33:33.340Z,39.9
2023-04-22T10:34:47.957Z,38.7
2023-04-22T10:37:16.470Z,39.7
2023-04-22T10:38:31.088Z,37.3
2023-04-22T10:39:45.708Z,37.8
2023-04-22T10:41:00.323Z,37.6
2023-04-22T10:42:14.978Z,38.9
2023-04-22T10:43:29.582Z,39
2023-04-22T10:44:44.198Z,41.5
2023-04-22T10:45:58.816Z,40.2
2023-04-22T10:47:13.427Z,41.5
2023-04-22T10:48:28.045Z,43.6
2023-04-22T10:49:42.668Z,41.4
2023-04-22T10:50:57.284Z,40
2023-04-22T10:52:11.180Z,40.2
2023-04-22T10:53:25.793Z,36.1
2023-04-22T10:54:40.426Z,34.2
2023-04-22T10:55:55.041Z,33.1
2023-04-22T10:57:09.658Z,35.9
2023-04-22T10:58:24.278Z,35.4
2023-04-22T10:59:38.897Z,33.8
2023-04-22T11:00:55.000Z,34.7
2023-04-22T11:02:08.140Z,39
2023-04-22T11:03:22.752Z,41.5
2023-04-22T11:04:37.378Z,40.1
2023-04-22T11:05:51.988Z,39.2
2023-04-22T11:07:06.610Z,36.2
2023-04-22T11:08:21.240Z,37.3
2023-04-22T11:09:35.112Z,40.5
2023-04-22T11:12:05.000Z,35.8
2023-04-22T11:13:18.984Z,33.8
2023-04-22T11:14:33.601Z,32.8
2023-04-22T11:15:48.220Z,36.2
2023-04-22T11:17:04.000Z,35.8
2023-04-22T11:18:17.459Z,37.6
2023-04-22T11:19:32.078Z,35.8
2023-04-22T11:20:46.690Z,35.7
2023-04-22T11:22:02.000Z,35.8
2023-04-22T11:23:15.931Z,36
2023-04-22T11:24:30.559Z,34.7
2023-04-22T11:25:45.174Z,35
2023-04-22T11:27:01.290Z,33.4
2023-04-22T11:28:14.432Z,35.1
2023-04-22T11:29:28.302Z,33.9
2023-04-22T11:30:42.920Z,34.2
2023-04-22T11:31:57.541Z,32.9
2023-04-22T11:33:12.172Z,32
2023-04-22T11:34:26.778Z,33
2023-04-22T11:35:41.391Z,36.3
2023-04-22T11:36:56.023Z,32.9
2023-04-22T11:38:10.631Z,32.4
2023-04-22T11:39:25.264Z,35.5
2023-04-22T11:40:39.877Z,34.6
2023-04-22T11:43:09.112Z,37.6
2023-04-22T11:44:23.728Z,31.4
2023-04-22T11:45:37.469Z,35.8
2023-04-22T11:46:51.008Z,33.7
2023-04-22T11:48:05.407Z,31.8
2023-04-22T11:49:19.829Z,30.9
2023-04-22T11:50:34.229Z,32.1
2023-04-22T11:51:48.640Z,29.9
2023-04-22T11:53:03.066Z,32.6
2023-04-22T11:54:17.470Z,32.3
2023-04-22T11:55:31.890Z,31.4
2023-04-22T11:56:46.303Z,34.1
2023-04-22T11:58:00.716Z,31.4
2023-04-22T11:59:15.145Z,30.6
2023-04-22T12:00:31.000Z,30.2
2023-04-22T12:01:45.000Z,30.7
2023-04-22T12:02:58.365Z,28.6
2023-04-22T12:04:11.913Z,30
2023-04-22T12:05:26.317Z,35.5
2023-04-22T12:06:40.730Z,30.4
2023-04-22T12:07:55.146Z,31.1
2023-04-22T12:09:09.569Z,31.4
2023-04-22T12:10:23.965Z,30
2023-04-22T12:11:38.378Z,31.4
2023-04-22T12:12:52.793Z,30
2023-04-22T12:14:07.214Z,33.5
2023-04-22T12:15:21.639Z,34.1
2023-04-22T12:16:36.049Z,31.7
2023-04-22T12:17:51.000Z,34.7
2023-04-22T12:19:04.879Z,34.5
2023-04-22T12:20:19.296Z,31.7
2023-04-22T12:21:32.812Z,31.6
2023-04-22T12:22:47.240Z,32.4
2023-04-22T12:24:01.651Z,32.6
2023-04-22T12:25:16.066Z,32.9
2023-04-22T12:26:30.473Z,33.3
2023-04-22T12:27:44.888Z,37.9
2023-04-22T12:28:59.304Z,36.9
2023-04-22T12:30:13.717Z,31.5
2023-04-22T12:31:28.130Z,33.5
2023-04-22T12:32:44.000Z,32.1
2023-04-22T12:33:56.963Z,35.6
2023-04-22T12:35:11.373Z,33.4
2023-04-22T12:36:25.788Z,33
2023-04-22T12:37:40.202Z,31.2
2023-04-22T12:38:53.737Z,30.1
2023-04-22T12:40:08.156Z,31.9
2023-04-22T12:41:22.560Z,34.7
2023-04-22T12:42:36.973Z,33.3
2023-04-22T12:43:51.402Z,29.3
2023-04-22T12:45:05.799Z,28.8
2023-04-22T12:46:21.000Z,30.3
2023-04-22T12:47:34.619Z,31.1
2023-04-22T12:50:03.452Z,29.4
2023-04-22T12:51:17.886Z,31.3
2023-04-22T12:52:33.000Z,32.9
2023-04-22T12:53:46.713Z,33.5
2023-04-22T12:55:01.108Z,33
2023-04-22T12:56:15.536Z,31.7
2023-04-22T12:57:29.065Z,32.8
2023-04-22T12:58:43.498Z,30.8
2023-04-22T12:59:57.886Z,31.5
2023-04-22T13:01:12.315Z,30.2
2023-04-22T13:02:28.000Z,31.7
2023-04-22T13:03:41.135Z,33.3
2023-04-22T13:04:55.550Z,35.5
2023-04-22T13:06:09.956Z,34.7
2023-04-22T13:07:24.364Z,32.2
2023-04-22T13:08:38.792Z,32.7
2023-04-22T13:09:53.199Z,31.6
2023-04-22T13:11:07.629Z,32.4
2023-04-22T13:12:22.047Z,33.1
2023-04-22T13:14:51.000Z,29.5
2023-04-22T13:16:05.000Z,29.8
2023-04-22T13:17:18.805Z,29.8
2023-04-22T13:19:47.637Z,28.4
2023-04-22T13:21:02.051Z,28.3
2023-04-22T13:22:16.445Z,28.3
2023-04-22T13:23:30.879Z,29.5
2023-04-22T13:24:45.299Z,29.8
2023-04-22T13:25:59.702Z,31.3
2023-04-22T13:27:14.120Z,28.7
2023-04-22T13:28:28.529Z,27.4
2023-04-22T13:29:42.961Z,27.2
2023-04-22T13:30:57.370Z,28.6
2023-04-22T13:32:10.897Z,28.1
2023-04-22T13:33:25.311Z,31.7
2023-04-22T13:34:39.706Z,29.8
2023-04-22T13:35:54.123Z,29.6
2023-04-22T13:37:08.536Z,31.6
2023-04-22T13:38:22.952Z,28.2
2023-04-22T13:39:37.370Z,30.5
2023-04-22T13:40:51.793Z,28.8
2023-04-22T13:42:06.192Z,29.3
2023-04-22T13:43:20.617Z,28.9
2023-04-22T13:44:35.021Z,28.9
2023-04-22T13:45:49.431Z,29.3
2023-04-22T13:47:05.000Z,32.2
2023-04-22T13:49:31.800Z,32.5
2023-04-22T13:50:46.201Z,31.1
2023-04-22T13:52:02.000Z,32.7
2023-04-22T13:54:29.468Z,31.1
2023-04-22T13:55:43.869Z,31.6
2023-04-22T13:56:59.000Z,34.6
2023-04-22T13:58:12.694Z,33.7
2023-04-22T13:59:27.118Z,35.3
2023-04-22T14:00:41.528Z,36.2
2023-04-22T14:01:55.926Z,35.5
2023-04-22T14:03:10.375Z,35.6
2023-04-22T14:04:23.876Z,34.5
2023-04-22T14:05:38.307Z,29.8
2023-04-22T14:06:52.725Z,33.5
2023-04-22T14:09:21.533Z,34.1
2023-04-22T14:10:35.961Z,30.2
2023-04-22T14:11:49.516Z,32.6
2023-04-22T14:13:03.064Z,33.2
2023-04-22T14:14:17.464Z,36.8
2023-04-22T14:15:33.000Z,32.8
2023-04-22T14:16:46.291Z,32.1
2023-04-22T14:18:00.698Z,34.3
2023-04-22T14:19:15.109Z,29.8
2023-04-22T14:20:29.514Z,30.8
2023-04-22T14:21:45.000Z,34
2023-04-22T14:22:58.370Z,33
2023-04-22T14:24:12.783Z,30.8
2023-04-22T14:25:27.175Z,28.9
2023-04-22T14:26:41.601Z,29.1
2023-04-22T14:29:10.441Z,28
2023-04-22T14:30:24.826Z,27.6
2023-04-22T14:31:39.264Z,26.8
2023-04-22T14:32:52.791Z,31.6
2023-04-22T14:34:07.186Z,31.7
2023-04-22T14:35:23.000Z,30
2023-04-22T14:36:36.037Z,28.7
2023-04-22T14:37:50.453Z,30.6
2023-04-22T14:39:04.852Z,28.5
2023-04-22T14:40:19.261Z,26.7
2023-04-22T14:41:33.670Z,27.5
2023-04-22T14:42:47.229Z,31
2023-04-22T14:44:00.784Z,29.5
2023-04-22T14:45:15.195Z,34.8
2023-04-22T14:47:44.029Z,31.1
2023-04-22T14:48:58.419Z,28
2023-04-22T14:50:12.833Z,31.9
2023-04-22T14:52:41.659Z,29.4
2023-04-22T14:53:56.076Z,29.6
2023-04-22T14:55:10.505Z,30.2
2023-04-22T14:56:24.921Z,27.3
2023-04-22T14:57:39.331Z,28.3
2023-04-22T14:58:52.881Z,29.4
2023-04-22T15:00:07.309Z,28.1
2023-04-22T15:01:21.725Z,28.3
2023-04-22T15:02:36.000Z,28.6
2023-04-22T15:03:51.000Z,27.5
2023-04-22T15:05:04.061Z,29.9
2023-04-22T15:06:18.502Z,27.6
2023-04-22T15:07:32.890Z,28.3
2023-04-22T15:08:47.328Z,29.1
2023-04-22T15:10:01.741Z,29.6
2023-04-22T15:12:32.000Z,27.9
2023-04-22T15:13:44.993Z,27.8
2023-04-22T15:15:00.000Z,27.1
2023-04-22T15:16:13.822Z,28.3
2023-04-22T15:17:28.212Z,29.3
2023-04-22T15:18:41.742Z,27.7
2023-04-22T15:19:56.177Z,29.9
2023-04-22T15:21:10.565Z,28.5
2023-04-22T15:22:26.000Z,27.6
2023-04-22T15:23:39.416Z,28.7
2023-04-22T15:24:53.826Z,29.5
2023-04-22T15:26:07.373Z,30.2
2023-04-22T15:27:22.000Z,30
2023-04-22T15:28:35.332Z,28.4
2023-04-22T15:29:49.731Z,27.5
2023-04-22T15:31:04.171Z,27.1
2023-04-22T15:32:18.587Z,28.1
2023-04-22T15:33:32.967Z,27.1
2023-04-22T15:34:47.418Z,27.3
2023-04-22T15:36:01.799Z,29.2
2023-04-22T15:37:17.000Z,27.4
2023-04-22T15:38:30.644Z,29
2023-04-22T15:39:45.059Z,28.1
2023-04-22T15:40:59.471Z,30.6
2023-04-22T15:42:13.899Z,28.9
2023-04-22T15:43:28.317Z,27.8
2023-04-22T15:44:42.718Z,28.4
2023-04-22T15:45:57.141Z,27.2
2023-04-22T15:47:11.547Z,26.4
2023-04-22T15:48:27.000Z,27
2023-04-22T15:49:40.380Z,26.5
2023-04-22T15:50:54.802Z,26.4
2023-04-22T15:52:09.189Z,27
2023-04-22T15:53:23.614Z,28.1
2023-04-22T15:54:38.036Z,27.7
2023-04-22T15:55:52.452Z,27.8
2023-04-22T15:57:06.837Z,30.5
2023-04-22T15:58:21.275Z,31.2
2023-04-22T15:59:35.662Z,29.7
2023-04-22T16:00:50.071Z,27.4
2023-04-22T16:02:03.611Z,27.2
2023-04-22T16:03:18.040Z,28.3
2023-04-22T16:04:32.465Z,27.5
2023-04-22T16:07:01.302Z,27.6
2023-04-22T16:08:15.688Z,27.8
2023-04-22T16:09:30.117Z,29.3
2023-04-22T16:10:44.539Z,27.3
2023-04-22T16:11:58.950Z,27
2023-04-22T16:13:13.367Z,29.5
2023-04-22T16:14:27.772Z,28
2023-04-22T16:15:42.200Z,28.5
2023-04-22T16:16:56.600Z,26.9
2023-04-22T16:18:11.020Z,28.4
2023-04-22T16:19:25.431Z,28.7
2023-04-22T16:21:54.234Z,29.2
2023-04-22T16:23:08.668Z,30.3
2023-04-22T16:24:23.089Z,30.2
2023-04-22T16:26:51.911Z,30.5
2023-04-22T16:28:06.303Z,31
2023-04-22T16:29:20.739Z,32.5
2023-04-22T16:31:49.542Z,32.8
2023-04-22T16:33:03.984Z,34.2
2023-04-22T16:34:18.377Z,35
2023-04-22T16:36:47.000Z,34.7
2023-04-22T16:37:59.896Z,36.6
2023-04-22T16:39:14.308Z,35.8
2023-04-22T16:41:42.270Z,35.7
2023-04-22T16:42:58.000Z,35.6
2023-04-22T16:44:11.123Z,36.4
2023-04-22T16:45:25.496Z,36.3
2023-04-22T16:46:41.000Z,36.2
2023-04-22T16:47:54.326Z,35.9
2023-04-22T16:49:08.736Z,37
2023-04-22T16:51:37.576Z,36.4
2023-04-22T16:52:52.019Z,36.9
2023-04-22T16:54:06.395Z,37.9
2023-04-22T16:55:20.814Z,37.7
2023-04-22T16:56:35.233Z,37
2023-04-22T16:57:49.636Z,36.7
2023-04-22T16:59:04.054Z,36.7
2023-04-22T17:00:18.497Z,38
2023-04-22T17:01:32.892Z,38.5
2023-04-22T17:02:47.286Z,37.1
2023-04-22T17:04:01.738Z,38.3
2023-04-22T17:06:29.650Z,38.2
2023-04-22T17:07:44.101Z,38.3
2023-04-22T17:08:58.478Z,39.1
2023-04-22T17:10:12.059Z,38.5
2023-04-22T17:11:26.435Z,38.5
2023-04-22T17:12:40.885Z,39.3
2023-04-22T17:13:55.253Z,39.3
2023-04-22T17:15:09.709Z,38.5
2023-04-22T17:16:24.116Z,39.3
2023-04-22T17:17:38.526Z,39.6
2023-04-22T17:18:52.944Z,40
2023-04-22T17:20:07.364Z,40
2023-04-22T17:21:21.735Z,39.6
2023-04-22T17:22:36.176Z,39.7
2023-04-22T17:23:50.573Z,39.3
2023-04-22T17:25:05.020Z,39.8
2023-04-22T17:26:19.437Z,40
2023-04-22T17:27:33.814Z,40.4
2023-04-22T17:28:48.246Z,41.1
2023-04-22T17:30:02.661Z,41.2
2023-04-22T17:31:16.196Z,41.2
2023-04-22T17:32:29.727Z,40.6
2023-04-22T17:33:44.137Z,40.6
2023-04-22T17:34:58.587Z,41
2023-04-22T17:36:12.960Z,41.6
2023-04-22T17:37:27.390Z,41.2
2023-04-22T17:38:41.821Z,42.3
2023-04-22T17:39:56.207Z,42.1
2023-04-22T17:41:10.625Z,42
2023-04-22T17:42:25.027Z,42
2023-04-22T17:43:39.479Z,42.1
2023-04-22T17:44:53.889Z,42
2023-04-22T17:46:08.285Z,41.9
2023-04-22T17:47:22.691Z,42.6
2023-04-22T17:48:37.104Z,42
2023-04-22T17:49:51.542Z,42.5
2023-04-22T17:51:05.963Z,43
2023-04-22T17:52:20.375Z,43.1
2023-04-22T17:53:34.796Z,43.3
2023-04-22T17:54:48.318Z,42.8
2023-04-22T17:56:02.705Z,43.3
2023-04-22T17:57:17.147Z,43.6
2023-04-22T17:58:31.572Z,43.2
2023-04-22T17:59:45.951Z,43.9
2023-04-22T18:01:00.354Z,43.7
2023-04-22T18:02:14.803Z,44.2
2023-04-22T18:03:29.213Z,44.5
2023-04-22T18:04:43.626Z,44.5
2023-04-22T18:05:58.041Z,44
2023-04-22T18:07:12.453Z,44.7
2023-04-22T18:08:26.879Z,44.8
2023-04-22T18:09:41.286Z,45.2
2023-04-22T18:10:54.819Z,45.5
2023-04-22T18:12:09.239Z,45.2
2023-04-22T18:13:23.611Z,45.3
2023-04-22T18:15:52.473Z,46
2023-04-22T18:17:06.868Z,45.8
2023-04-22T18:18:21.274Z,46.5
2023-04-22T18:20:50.096Z,46.2
2023-04-22T18:22:04.558Z,46.9
2023-04-22T18:23:18.931Z,46.3
2023-04-22T18:24:33.370Z,46.9
2023-04-22T18:25:47.760Z,46.1
2023-04-22T18:27:02.193Z,47.1
2023-04-22T18:28:15.728Z,46.5
2023-04-22T18:29:30.119Z,47.4
2023-04-22T18:30:44.535Z,47.4
2023-04-22T18:31:58.984Z,47.5
2023-04-22T18:33:13.354Z,47.3
2023-04-22T18:34:27.815Z,48
2023-04-22T18:35:42.214Z,47.8
2023-04-22T18:36:56.624Z,47.9
2023-04-22T18:38:11.041Z,47.6
2023-04-22T18:39:25.462Z,48.4
2023-04-22T18:40:39.875Z,48.5
2023-04-22T18:41:54.287Z,48.7
2023-04-22T18:43:08.704Z,48.5
2023-04-22T18:45:37.500Z,49.3
2023-04-22T18:46:51.915Z,49.1
2023-04-22T18:48:06.364Z,49.1
2023-04-22T18:50:35.272Z,49.6
2023-04-22T18:51:49.769Z,49.6
2023-04-22T18:53:03.329Z,49.9